sensor_id;sensor_type;location;lat;lon;timestamp;pressure;altitude;pressure_sealevel;temperature;humidity
76866;BME280;66647;52.124;5.416;2023-06-01T00:02:11;102542.81;;;12.26;74.81
76866;BME280;66647;52.124;5.416;2023-06-01T00:04:39;102535.97;;;12.24;74.55
76866;BME280;66647;52.124;5.416;2023-06-01T00:07:08;102537.66;;;12.20;74.38
76866;BME280;66647;52.124;5.416;2023-06-01T00:09:34;102537.78;;;12.09;74.97
76866;BME280;66647;52.124;5.416;2023-06-01T00:12:01;102536.00;;;12.00;75.02
76866;BME280;66647;52.124;5.416;2023-06-01T00:14:28;102528.88;;;11.99;75.40
76866;BME280;66647;52.124;5.416;2023-06-01T00:16:55;102533.59;;;11.93;75.53
76866;BME280;66647;52.124;5.416;2023-06-01T00:19:25;102536.34;;;11.93;75.52
76866;BME280;66647;52.124;5.416;2023-06-01T00:21:54;102531.38;;;11.95;75.91
76866;BME280;66647;52.124;5.416;2023-06-01T00:24:22;102535.19;;;11.99;75.46
76866;BME280;66647;52.124;5.416;2023-06-01T00:26:49;102530.72;;;12.03;75.64
76866;BME280;66647;52.124;5.416;2023-06-01T00:29:18;102531.22;;;12.05;75.52
76866;BME280;66647;52.124;5.416;2023-06-01T00:31:44;102523.56;;;12.02;75.12
76866;BME280;66647;52.124;5.416;2023-06-01T00:34:11;102521.88;;;12.06;75.38
76866;BME280;66647;52.124;5.416;2023-06-01T00:36:38;102525.72;;;12.05;75.71
76866;BME280;66647;52.124;5.416;2023-06-01T00:39:06;102523.56;;;12.02;75.73
76866;BME280;66647;52.124;5.416;2023-06-01T00:41:32;102525.06;;;11.95;75.54
76866;BME280;66647;52.124;5.416;2023-06-01T00:43:59;102528.94;;;11.94;75.65
76866;BME280;66647;52.124;5.416;2023-06-01T00:46:27;102525.19;;;11.85;75.96
76866;BME280;66647;52.124;5.416;2023-06-01T00:48:54;102526.06;;;11.80;76.40
76866;BME280;66647;52.124;5.416;2023-06-01T00:51:20;102531.78;;;11.84;76.13
76866;BME280;66647;52.124;5.416;2023-06-01T00:53:48;102518.81;;;11.89;76.09
76866;BME280;66647;52.124;5.416;2023-06-01T00:56:15;102528.69;;;11.90;76.33
76866;BME280;66647;52.124;5.416;2023-06-01T00:58:43;102520.16;;;11.92;75.99
76866;BME280;66647;52.124;5.416;2023-06-01T01:01:10;102528.09;;;11.93;75.85
76866;BME280;66647;52.124;5.416;2023-06-01T01:03:46;102531.44;;;11.90;76.01
76866;BME280;66647;52.124;5.416;2023-06-01T01:06:30;102526.22;;;11.89;76.10
76866;BME280;66647;52.124;5.416;2023-06-01T01:12:03;102528.69;;;11.90;75.72
76866;BME280;66647;52.124;5.416;2023-06-01T01:14:40;102522.91;;;11.92;76.43
76866;BME280;66647;52.124;5.416;2023-06-01T01:17:14;102528.03;;;11.98;75.62
76866;BME280;66647;52.124;5.416;2023-06-01T01:30:06;102524.25;;;11.94;75.98
76866;BME280;66647;52.124;5.416;2023-06-01T01:32:34;102522.09;;;11.91;76.29
76866;BME280;66647;52.124;5.416;2023-06-01T01:35:03;102527.41;;;11.83;76.60
76866;BME280;66647;52.124;5.416;2023-06-01T01:37:34;102523.63;;;11.73;77.11
76866;BME280;66647;52.124;5.416;2023-06-01T01:40:01;102526.22;;;11.65;76.51
76866;BME280;66647;52.124;5.416;2023-06-01T01:42:28;102527.63;;;11.62;76.74
76866;BME280;66647;52.124;5.416;2023-06-01T01:44:55;102532.34;;;11.57;76.97
76866;BME280;66647;52.124;5.416;2023-06-01T01:47:35;102530.41;;;11.57;76.09
76866;BME280;66647;52.124;5.416;2023-06-01T01:50:06;102525.16;;;11.61;76.57
76866;BME280;66647;52.124;5.416;2023-06-01T01:52:41;102520.78;;;11.60;76.65
76866;BME280;66647;52.124;5.416;2023-06-01T01:55:09;102522.41;;;11.61;76.89
76866;BME280;66647;52.124;5.416;2023-06-01T01:57:36;102524.03;;;11.62;77.00
76866;BME280;66647;52.124;5.416;2023-06-01T02:00:04;102528.66;;;11.66;76.76
76866;BME280;66647;52.124;5.416;2023-06-01T02:02:38;102517.97;;;11.65;76.99
76866;BME280;66647;52.124;5.416;2023-06-01T02:05:05;102515.56;;;11.58;77.01
76866;BME280;66647;52.124;5.416;2023-06-01T02:07:32;102518.03;;;11.60;76.93
76866;BME280;66647;52.124;5.416;2023-06-01T02:10:03;102515.28;;;11.60;76.91
76866;BME280;66647;52.124;5.416;2023-06-01T02:12:30;102516.38;;;11.59;77.14
76866;BME280;66647;52.124;5.416;2023-06-01T02:14:56;102525.50;;;11.54;76.92
76866;BME280;66647;52.124;5.416;2023-06-01T02:17:23;102518.13;;;11.50;76.67
76866;BME280;66647;52.124;5.416;2023-06-01T02:19:51;102518.47;;;11.43;75.90
76866;BME280;66647;52.124;5.416;2023-06-01T02:22:18;102511.16;;;11.33;76.17
76866;BME280;66647;52.124;5.416;2023-06-01T02:24:44;102519.75;;;11.27;76.40
76866;BME280;66647;52.124;5.416;2023-06-01T02:27:12;102523.59;;;11.26;76.53
76866;BME280;66647;52.124;5.416;2023-06-01T02:29:39;102514.53;;;11.25;76.56
76866;BME280;66647;52.124;5.416;2023-06-01T02:32:06;102516.69;;;11.28;76.88
76866;BME280;66647;52.124;5.416;2023-06-01T02:34:33;102519.16;;;11.30;76.89
76866;BME280;66647;52.124;5.416;2023-06-01T02:36:59;102505.72;;;11.28;76.94
76866;BME280;66647;52.124;5.416;2023-06-01T02:39:26;102511.78;;;11.25;76.97
76866;BME280;66647;52.124;5.416;2023-06-01T02:41:52;102513.97;;;11.28;77.27
76866;BME280;66647;52.124;5.416;2023-06-01T02:44:19;102514.50;;;11.30;77.22
76866;BME280;66647;52.124;5.416;2023-06-01T02:46:46;102509.53;;;11.32;76.97
76866;BME280;66647;52.124;5.416;2023-06-01T02:49:12;102510.34;;;11.33;76.83
76866;BME280;66647;52.124;5.416;2023-06-01T02:51:41;102518.59;;;11.33;77.28
76866;BME280;66647;52.124;5.416;2023-06-01T02:54:16;102508.41;;;11.33;76.90
76866;BME280;66647;52.124;5.416;2023-06-01T02:56:43;102513.09;;;11.33;76.84
76866;BME280;66647;52.124;5.416;2023-06-01T02:59:33;102509.00;;;11.30;77.19
76866;BME280;66647;52.124;5.416;2023-06-01T03:02:01;102501.63;;;11.26;77.24
76866;BME280;66647;52.124;5.416;2023-06-01T03:04:29;102513.19;;;11.23;77.21
76866;BME280;66647;52.124;5.416;2023-06-01T03:06:59;102507.44;;;11.19;77.01
76866;BME280;66647;52.124;5.416;2023-06-01T03:09:33;102506.38;;;11.15;77.36
76866;BME280;66647;52.124;5.416;2023-06-01T03:12:06;102500.19;;;11.04;77.43
76866;BME280;66647;52.124;5.416;2023-06-01T03:14:34;102494.69;;;11.04;77.37
76866;BME280;66647;52.124;5.416;2023-06-01T03:17:01;102503.22;;;11.03;77.53
76866;BME280;66647;52.124;5.416;2023-06-01T03:19:27;102500.47;;;11.03;77.63
76866;BME280;66647;52.124;5.416;2023-06-01T03:21:56;102496.09;;;11.02;77.70
76866;BME280;66647;52.124;5.416;2023-06-01T03:24:24;102509.28;;;11.00;77.75
76866;BME280;66647;52.124;5.416;2023-06-01T03:26:52;102502.41;;;11.02;77.88
76866;BME280;66647;52.124;5.416;2023-06-01T03:29:19;102502.63;;;11.06;77.60
76866;BME280;66647;52.124;5.416;2023-06-01T03:31:46;102502.03;;;11.09;77.50
76866;BME280;66647;52.124;5.416;2023-06-01T03:34:15;102504.78;;;11.09;77.43
76866;BME280;66647;52.124;5.416;2023-06-01T03:36:42;102500.19;;;11.04;77.39
76866;BME280;66647;52.124;5.416;2023-06-01T03:39:16;102496.63;;;11.04;77.68
76866;BME280;66647;52.124;5.416;2023-06-01T03:41:43;102497.44;;;11.04;77.65
76866;BME280;66647;52.124;5.416;2023-06-01T03:44:11;102494.44;;;11.01;78.09
76866;BME280;66647;52.124;5.416;2023-06-01T03:46:39;102490.81;;;11.05;77.67
76866;BME280;66647;52.124;5.416;2023-06-01T03:49:06;102493.81;;;11.09;77.57
76866;BME280;66647;52.124;5.416;2023-06-01T03:51:32;102496.84;;;11.07;77.64
76866;BME280;66647;52.124;5.416;2023-06-01T03:53:59;102499.59;;;11.07;77.76
76866;BME280;66647;52.124;5.416;2023-06-01T03:56:27;102501.19;;;11.14;78.03
76866;BME280;66647;52.124;5.416;2023-06-01T03:58:57;102495.13;;;11.17;77.92
76866;BME280;66647;52.124;5.416;2023-06-01T04:01:24;102502.53;;;11.16;77.64
76866;BME280;66647;52.124;5.416;2023-06-01T04:03:53;102502.53;;;11.16;77.65
76866;BME280;66647;52.124;5.416;2023-06-01T04:06:19;102500.66;;;11.11;78.47
76866;BME280;66647;52.124;5.416;2023-06-01T04:08:47;102491.31;;;11.13;78.04
76866;BME280;66647;52.124;5.416;2023-06-01T04:11:22;102503.63;;;11.15;77.93
76866;BME280;66647;52.124;5.416;2023-06-01T04:13:49;102495.69;;;11.14;77.56
76866;BME280;66647;52.124;5.416;2023-06-01T04:16:17;102491.00;;;11.14;78.06
76866;BME280;66647;52.124;5.416;2023-06-01T04:18:44;102495.34;;;11.20;77.65
76866;BME280;66647;52.124;5.416;2023-06-01T04:21:23;102491.50;;;11.21;77.98
76866;BME280;66647;52.124;5.416;2023-06-01T04:23:50;102497.78;;;11.27;77.66
76866;BME280;66647;52.124;5.416;2023-06-01T04:26:18;102500.75;;;11.30;77.83
76866;BME280;66647;52.124;5.416;2023-06-01T04:28:45;102498.47;;;11.37;77.72
76866;BME280;66647;52.124;5.416;2023-06-01T04:31:13;102497.34;;;11.38;77.45
76866;BME280;66647;52.124;5.416;2023-06-01T04:33:47;102499.66;;;11.31;77.65
76866;BME280;66647;52.124;5.416;2023-06-01T04:36:23;102498.47;;;11.37;77.25
76866;BME280;66647;52.124;5.416;2023-06-01T04:38:53;102506.06;;;11.45;76.76
76866;BME280;66647;52.124;5.416;2023-06-01T04:41:21;102502.22;;;11.47;76.43
76866;BME280;66647;52.124;5.416;2023-06-01T04:43:49;102505.00;;;11.41;76.03
76866;BME280;66647;52.124;5.416;2023-06-01T04:46:23;102503.47;;;11.35;76.61
76866;BME280;66647;52.124;5.416;2023-06-01T04:48:54;102497.44;;;11.33;76.35
76866;BME280;66647;52.124;5.416;2023-06-01T04:51:29;102505.59;;;11.38;76.24
76866;BME280;66647;52.124;5.416;2023-06-01T04:53:57;102504.78;;;11.38;76.42
76866;BME280;66647;52.124;5.416;2023-06-01T04:56:25;102511.16;;;11.33;76.33
76866;BME280;66647;52.124;5.416;2023-06-01T04:58:56;102512.81;;;11.34;76.46
76866;BME280;66647;52.124;5.416;2023-06-01T05:01:25;102509.41;;;11.42;76.16
76866;BME280;66647;52.124;5.416;2023-06-01T05:03:53;102512.97;;;11.43;76.47
76866;BME280;66647;52.124;5.416;2023-06-01T05:06:21;102503.84;;;11.48;76.21
76866;BME280;66647;52.124;5.416;2023-06-01T05:08:48;102507.72;;;11.47;76.18
76866;BME280;66647;52.124;5.416;2023-06-01T05:11:15;102511.28;;;11.47;76.16
76866;BME280;66647;52.124;5.416;2023-06-01T05:13:42;102513.44;;;11.50;76.33
76866;BME280;66647;52.124;5.416;2023-06-01T05:16:11;102514.78;;;11.53;76.47
76866;BME280;66647;52.124;5.416;2023-06-01T05:18:38;102510.31;;;11.62;76.48
76866;BME280;66647;52.124;5.416;2023-06-01T05:21:05;102518.78;;;11.65;75.99
76866;BME280;66647;52.124;5.416;2023-06-01T05:23:32;102513.81;;;11.67;75.85
76866;BME280;66647;52.124;5.416;2023-06-01T05:25:58;102513.00;;;11.67;75.86
76866;BME280;66647;52.124;5.416;2023-06-01T05:28:32;102509.97;;;11.68;75.97
76866;BME280;66647;52.124;5.416;2023-06-01T05:31:02;102521.16;;;11.72;75.91
76866;BME280;66647;52.124;5.416;2023-06-01T05:33:33;102514.81;;;11.76;75.56
76866;BME280;66647;52.124;5.416;2023-06-01T05:35:59;102511.50;;;11.80;75.53
76866;BME280;66647;52.124;5.416;2023-06-01T05:38:26;102521.09;;;11.82;75.45
76866;BME280;66647;52.124;5.416;2023-06-01T05:40:53;102519.44;;;11.81;75.79
76866;BME280;66647;52.124;5.416;2023-06-01T05:43:19;102507.94;;;11.79;75.20
76866;BME280;66647;52.124;5.416;2023-06-01T05:45:46;102518.41;;;11.77;75.29
76866;BME280;66647;52.124;5.416;2023-06-01T05:48:15;102525.22;;;11.80;75.95
76866;BME280;66647;52.124;5.416;2023-06-01T05:50:47;102522.97;;;11.87;75.50
76866;BME280;66647;52.124;5.416;2023-06-01T05:53:13;102527.00;;;11.94;75.18
76866;BME280;66647;52.124;5.416;2023-06-01T05:55:40;102521.44;;;11.99;74.38
76866;BME280;66647;52.124;5.416;2023-06-01T05:58:08;102528.88;;;11.99;74.57
76866;BME280;66647;52.124;5.416;2023-06-01T06:00:34;102529.50;;;11.91;74.38
76866;BME280;66647;52.124;5.416;2023-06-01T06:03:03;102534.38;;;11.99;74.22
76866;BME280;66647;52.124;5.416;2023-06-01T06:05:30;102527.53;;;11.96;74.29
76866;BME280;66647;52.124;5.416;2023-06-01T06:07:57;102536.16;;;12.08;74.66
76866;BME280;66647;52.124;5.416;2023-06-01T06:10:23;102525.38;;;12.12;72.74
76866;BME280;66647;52.124;5.416;2023-06-01T06:12:50;102525.38;;;12.12;73.67
76866;BME280;66647;52.124;5.416;2023-06-01T06:15:17;102519.53;;;12.19;73.30
76866;BME280;66647;52.124;5.416;2023-06-01T06:17:43;102525.25;;;12.22;73.13
76866;BME280;66647;52.124;5.416;2023-06-01T06:20:10;102523.56;;;12.26;73.35
76866;BME280;66647;52.124;5.416;2023-06-01T06:22:41;102527.19;;;12.22;72.52
76866;BME280;66647;52.124;5.416;2023-06-01T06:25:08;102511.34;;;12.14;72.61
76866;BME280;66647;52.124;5.416;2023-06-01T06:27:35;102524.44;;;12.22;72.70
76866;BME280;66647;52.124;5.416;2023-06-01T06:30:02;102522.22;;;12.24;72.85
76866;BME280;66647;52.124;5.416;2023-06-01T06:32:29;102519.41;;;12.29;73.07
76866;BME280;66647;52.124;5.416;2023-06-01T06:34:55;102524.31;;;12.32;73.07
76866;BME280;66647;52.124;5.416;2023-06-01T06:37:22;102519.31;;;12.34;72.74
76866;BME280;66647;52.124;5.416;2023-06-01T06:39:48;102513.91;;;12.29;72.18
76866;BME280;66647;52.124;5.416;2023-06-01T06:42:15;102519.91;;;12.31;72.78
76866;BME280;66647;52.124;5.416;2023-06-01T06:44:42;102522.06;;;12.34;71.95
76866;BME280;66647;52.124;5.416;2023-06-01T06:47:11;102529.19;;;12.35;72.23
76866;BME280;66647;52.124;5.416;2023-06-01T06:49:42;102525.47;;;12.44;71.66
76866;BME280;66647;52.124;5.416;2023-06-01T06:52:09;102515.75;;;12.52;71.43
76866;BME280;66647;52.124;5.416;2023-06-01T06:54:38;102524.97;;;12.61;71.24
76866;BME280;66647;52.124;5.416;2023-06-01T06:57:05;102523.91;;;12.76;71.16
76866;BME280;66647;52.124;5.416;2023-06-01T06:59:32;102527.53;;;12.90;70.86
76866;BME280;66647;52.124;5.416;2023-06-01T07:01:59;102532.47;;;13.07;69.73
76866;BME280;66647;52.124;5.416;2023-06-01T07:04:27;102536.44;;;13.01;69.54
76866;BME280;66647;52.124;5.416;2023-06-01T07:06:54;102542.47;;;13.03;69.49
76866;BME280;66647;52.124;5.416;2023-06-01T07:09:21;102538.88;;;13.02;69.82
76866;BME280;66647;52.124;5.416;2023-06-01T07:11:47;102538.06;;;13.02;70.28
76866;BME280;66647;52.124;5.416;2023-06-01T07:14:15;102541.66;;;13.21;69.71
76866;BME280;66647;52.124;5.416;2023-06-01T07:16:41;102531.97;;;13.37;69.34
76866;BME280;66647;52.124;5.416;2023-06-01T07:19:08;102533.53;;;13.43;68.62
76866;BME280;66647;52.124;5.416;2023-06-01T07:21:34;102533.53;;;13.43;68.72
76866;BME280;66647;52.124;5.416;2023-06-01T07:24:03;102525.56;;;13.42;69.19
76866;BME280;66647;52.124;5.416;2023-06-01T07:26:30;102531.88;;;13.42;68.28
76866;BME280;66647;52.124;5.416;2023-06-01T07:28:57;102534.75;;;13.51;67.88
76866;BME280;66647;52.124;5.416;2023-06-01T07:31:24;102533.16;;;13.64;67.61
76866;BME280;66647;52.124;5.416;2023-06-01T07:33:50;102527.50;;;13.69;66.42
76866;BME280;66647;52.124;5.416;2023-06-01T07:36:19;102527.00;;;13.81;66.84
76866;BME280;66647;52.124;5.416;2023-06-01T07:38:46;102524.16;;;13.86;67.00
76866;BME280;66647;52.124;5.416;2023-06-01T07:41:13;102526.78;;;14.04;66.54
76866;BME280;66647;52.124;5.416;2023-06-01T07:43:42;102527.38;;;14.29;65.73
76866;BME280;66647;52.124;5.416;2023-06-01T07:46:11;102526.94;;;14.49;64.03
76866;BME280;66647;52.124;5.416;2023-06-01T07:48:38;102530.84;;;14.48;63.71
76866;BME280;66647;52.124;5.416;2023-06-01T07:51:06;102532.03;;;14.56;64.63
76866;BME280;66647;52.124;5.416;2023-06-01T07:53:34;102535.50;;;14.61;64.13
76866;BME280;66647;52.124;5.416;2023-06-01T07:56:01;102533.22;;;14.63;64.11
76866;BME280;66647;52.124;5.416;2023-06-01T07:58:29;102529.31;;;14.78;63.66
76866;BME280;66647;52.124;5.416;2023-06-01T08:00:55;102520.31;;;15.17;61.91
76866;BME280;66647;52.124;5.416;2023-06-01T08:03:22;102517.47;;;15.62;61.38
76866;BME280;66647;52.124;5.416;2023-06-01T08:05:52;102518.47;;;16.40;60.76
76866;BME280;66647;52.124;5.416;2023-06-01T08:08:26;102519.44;;;17.13;58.28
76866;BME280;66647;52.124;5.416;2023-06-01T08:10:53;102512.34;;;17.41;54.93
76866;BME280;66647;52.124;5.416;2023-06-01T08:13:20;102506.09;;;17.06;56.38
76866;BME280;66647;52.124;5.416;2023-06-01T08:15:47;102504.13;;;16.90;57.12
76866;BME280;66647;52.124;5.416;2023-06-01T08:18:13;102505.78;;;16.91;56.86
76866;BME280;66647;52.124;5.416;2023-06-01T08:20:41;102517.22;;;16.72;57.51
76866;BME280;66647;52.124;5.416;2023-06-01T08:23:08;102502.66;;;16.58;57.69
76866;BME280;66647;52.124;5.416;2023-06-01T08:25:35;102514.44;;;16.72;57.71
76866;BME280;66647;52.124;5.416;2023-06-01T08:28:02;102506.00;;;17.41;55.52
76866;BME280;66647;52.124;5.416;2023-06-01T08:30:29;102505.13;;;17.87;53.80
76866;BME280;66647;52.124;5.416;2023-06-01T08:32:56;102494.09;;;18.08;53.35
76866;BME280;66647;52.124;5.416;2023-06-01T08:35:23;102493.91;;;18.34;52.88
76866;BME280;66647;52.124;5.416;2023-06-01T08:37:51;102492.28;;;18.12;52.45
76866;BME280;66647;52.124;5.416;2023-06-01T08:40:18;102494.53;;;18.19;53.93
76866;BME280;66647;52.124;5.416;2023-06-01T08:45:12;102502.91;;;18.31;52.86
76866;BME280;66647;52.124;5.416;2023-06-01T08:47:41;102507.06;;;17.95;53.59
76866;BME280;66647;52.124;5.416;2023-06-01T08:50:10;102497.28;;;17.89;53.73
76866;BME280;66647;52.124;5.416;2023-06-01T08:52:43;102491.97;;;18.05;53.90
76866;BME280;66647;52.124;5.416;2023-06-01T08:55:13;102493.13;;;18.25;54.17
76866;BME280;66647;52.124;5.416;2023-06-01T08:57:41;102490.53;;;18.49;53.60
76866;BME280;66647;52.124;5.416;2023-06-01T09:00:11;102496.16;;;18.61;53.25
76866;BME280;66647;52.124;5.416;2023-06-01T09:02:41;102490.44;;;19.11;53.00
76866;BME280;66647;52.124;5.416;2023-06-01T09:05:09;102485.44;;;19.17;51.85
76866;BME280;66647;52.124;5.416;2023-06-01T09:07:38;102484.97;;;19.03;50.56
76866;BME280;66647;52.124;5.416;2023-06-01T09:10:05;102491.81;;;18.72;50.90
76866;BME280;66647;52.124;5.416;2023-06-01T09:12:32;102492.22;;;18.62;52.39
76866;BME280;66647;52.124;5.416;2023-06-01T09:15:13;102495.16;;;18.57;52.96
76866;BME280;66647;52.124;5.416;2023-06-01T09:17:44;102499.25;;;18.39;52.39
76866;BME280;66647;52.124;5.416;2023-06-01T09:20:14;102496.16;;;18.61;52.70
76866;BME280;66647;52.124;5.416;2023-06-01T09:22:43;102484.66;;;19.29;50.86
76866;BME280;66647;52.124;5.416;2023-06-01T09:25:11;102480.53;;;19.84;51.76
76866;BME280;66647;52.124;5.416;2023-06-01T09:27:49;102471.94;;;20.53;49.17
76866;BME280;66647;52.124;5.416;2023-06-01T09:30:18;102476.81;;;20.56;46.88
76866;BME280;66647;52.124;5.416;2023-06-01T09:32:45;102468.41;;;20.28;47.42
76866;BME280;66647;52.124;5.416;2023-06-01T09:35:37;102458.28;;;20.36;47.88
76866;BME280;66647;52.124;5.416;2023-06-01T09:38:04;102456.13;;;20.57;46.78
76866;BME280;66647;52.124;5.416;2023-06-01T09:40:33;102458.34;;;20.79;46.16
76866;BME280;66647;52.124;5.416;2023-06-01T09:43:01;102459.59;;;21.10;45.61
76866;BME280;66647;52.124;5.416;2023-06-01T09:45:30;102455.88;;;21.06;45.27
76866;BME280;66647;52.124;5.416;2023-06-01T09:48:20;102460.75;;;21.09;46.65
76866;BME280;66647;52.124;5.416;2023-06-01T09:50:47;102454.84;;;20.83;45.94
76866;BME280;66647;52.124;5.416;2023-06-01T09:53:13;102457.91;;;20.77;46.30
76866;BME280;66647;52.124;5.416;2023-06-01T09:55:57;102449.72;;;20.85;46.93
76866;BME280;66647;52.124;5.416;2023-06-01T09:58:25;102447.41;;;21.02;45.41
76866;BME280;66647;52.124;5.416;2023-06-01T10:00:52;102450.03;;;21.11;45.56
76866;BME280;66647;52.124;5.416;2023-06-01T10:03:20;102450.78;;;21.39;44.75
76866;BME280;66647;52.124;5.416;2023-06-01T10:05:48;102451.13;;;21.22;45.03
76866;BME280;66647;52.124;5.416;2023-06-01T10:08:18;102446.75;;;21.37;43.68
76866;BME280;66647;52.124;5.416;2023-06-01T10:10:47;102452.88;;;21.42;43.86
76866;BME280;66647;52.124;5.416;2023-06-01T10:13:14;102442.47;;;21.59;44.99
76866;BME280;66647;52.124;5.416;2023-06-01T10:15:41;102445.84;;;21.84;43.32
76866;BME280;66647;52.124;5.416;2023-06-01T10:18:08;102437.31;;;22.11;42.71
76866;BME280;66647;52.124;5.416;2023-06-01T10:20:37;102437.16;;;21.69;44.97
76866;BME280;66647;52.124;5.416;2023-06-01T10:23:04;102450.75;;;21.71;44.28
76866;BME280;66647;52.124;5.416;2023-06-01T10:25:40;102456.00;;;21.57;42.84
76866;BME280;66647;52.124;5.416;2023-06-01T10:28:11;102446.44;;;21.58;44.57
76866;BME280;66647;52.124;5.416;2023-06-01T10:30:39;102457.09;;;21.87;42.55
76866;BME280;66647;52.124;5.416;2023-06-01T10:33:06;102444.84;;;22.27;42.75
76866;BME280;66647;52.124;5.416;2023-06-01T10:40:44;102443.88;;;22.19;43.30
76866;BME280;66647;52.124;5.416;2023-06-01T10:48:57;102441.25;;;22.26;43.00
76866;BME280;66647;52.124;5.416;2023-06-01T10:51:24;102446.34;;;22.40;42.71
76866;BME280;66647;52.124;5.416;2023-06-01T10:53:51;102446.25;;;22.56;41.89
76866;BME280;66647;52.124;5.416;2023-06-01T10:56:22;102442.69;;;22.78;41.28
76866;BME280;66647;52.124;5.416;2023-06-01T11:01:46;102443.66;;;22.47;40.17
76866;BME280;66647;52.124;5.416;2023-06-01T11:04:13;102434.09;;;22.48;42.28
76866;BME280;66647;52.124;5.416;2023-06-01T11:06:41;102437.59;;;22.41;42.06
76866;BME280;66647;52.124;5.416;2023-06-01T11:09:11;102434.59;;;22.15;42.58
76866;BME280;66647;52.124;5.416;2023-06-01T11:14:18;102440.72;;;21.86;42.85
76866;BME280;66647;52.124;5.416;2023-06-01T11:16:45;102436.19;;;21.62;44.72
76866;BME280;66647;52.124;5.416;2023-06-01T11:19:23;102435.63;;;21.72;44.40
76866;BME280;66647;52.124;5.416;2023-06-01T11:21:57;102432.69;;;21.84;43.40
76866;BME280;66647;52.124;5.416;2023-06-01T11:24:35;102433.84;;;21.99;43.63
76866;BME280;66647;52.124;5.416;2023-06-01T11:27:07;102434.66;;;21.99;43.75
76866;BME280;66647;52.124;5.416;2023-06-01T11:29:35;102435.22;;;21.89;43.02
76866;BME280;66647;52.124;5.416;2023-06-01T11:32:03;102429.59;;;21.70;43.83
76866;BME280;66647;52.124;5.416;2023-06-01T11:34:36;102422.47;;;21.72;43.49
76866;BME280;66647;52.124;5.416;2023-06-01T11:37:14;102434.56;;;21.61;44.42
76866;BME280;66647;52.124;5.416;2023-06-01T11:39:41;102428.25;;;21.64;44.28
76866;BME280;66647;52.124;5.416;2023-06-01T11:42:15;102422.41;;;21.53;45.58
76866;BME280;66647;52.124;5.416;2023-06-01T11:44:44;102422.97;;;21.78;44.28
76866;BME280;66647;52.124;5.416;2023-06-01T11:47:13;102415.56;;;22.01;44.68
76866;BME280;66647;52.124;5.416;2023-06-01T11:49:49;102414.31;;;21.83;44.55
76866;BME280;66647;52.124;5.416;2023-06-01T11:52:18;102425.66;;;21.55;45.63
76866;BME280;66647;52.124;5.416;2023-06-01T11:54:46;102419.69;;;21.57;46.14
76866;BME280;66647;52.124;5.416;2023-06-01T11:57:13;102424.09;;;21.58;45.98
76866;BME280;66647;52.124;5.416;2023-06-01T11:59:42;102425.69;;;21.39;46.42
76866;BME280;66647;52.124;5.416;2023-06-01T12:04:53;102429.88;;;21.02;47.23
76866;BME280;66647;52.124;5.416;2023-06-01T12:07:21;102429.53;;;20.60;48.28
76866;BME280;66647;52.124;5.416;2023-06-01T12:09:47;102434.72;;;20.45;48.06
76866;BME280;66647;52.124;5.416;2023-06-01T12:12:16;102436.47;;;20.38;48.15
76866;BME280;66647;52.124;5.416;2023-06-01T12:14:43;102437.16;;;20.35;48.58
76866;BME280;66647;52.124;5.416;2023-06-01T12:17:10;102440.03;;;19.98;49.80
76866;BME280;66647;52.124;5.416;2023-06-01T12:19:47;102449.56;;;19.85;49.71
76866;BME280;66647;52.124;5.416;2023-06-01T12:22:17;102448.31;;;19.70;50.37
76866;BME280;66647;52.124;5.416;2023-06-01T12:24:44;102446.44;;;19.87;50.43
76866;BME280;66647;52.124;5.416;2023-06-01T12:27:17;102455.81;;;19.94;49.50
76866;BME280;66647;52.124;5.416;2023-06-01T12:29:47;102448.44;;;19.74;49.93
76866;BME280;66647;52.124;5.416;2023-06-01T12:32:16;102444.59;;;19.54;51.57
76866;BME280;66647;52.124;5.416;2023-06-01T12:35:04;102447.94;;;19.35;51.64
76866;BME280;66647;52.124;5.416;2023-06-01T12:37:34;102457.69;;;19.41;51.65
76866;BME280;66647;52.124;5.416;2023-06-01T12:40:01;102439.38;;;19.40;51.22
76866;BME280;66647;52.124;5.416;2023-06-01T12:42:35;102452.06;;;19.17;51.94
76866;BME280;66647;52.124;5.416;2023-06-01T12:45:04;102445.34;;;19.18;52.06
76866;BME280;66647;52.124;5.416;2023-06-01T12:47:38;102453.94;;;19.13;52.54
76866;BME280;66647;52.124;5.416;2023-06-01T12:50:10;102447.00;;;19.31;51.94
76866;BME280;66647;52.124;5.416;2023-06-01T12:52:40;102451.59;;;19.03;52.55
76866;BME280;66647;52.124;5.416;2023-06-01T12:55:08;102446.84;;;19.03;53.07
76866;BME280;66647;52.124;5.416;2023-06-01T12:57:36;102445.00;;;19.20;53.27
76866;BME280;66647;52.124;5.416;2023-06-01T13:00:05;102447.56;;;19.25;52.03
76866;BME280;66647;52.124;5.416;2023-06-01T13:02:37;102445.59;;;19.25;52.20
76866;BME280;66647;52.124;5.416;2023-06-01T13:05:04;102439.91;;;19.09;52.89
76866;BME280;66647;52.124;5.416;2023-06-01T13:07:33;102450.78;;;19.02;53.17
76866;BME280;66647;52.124;5.416;2023-06-01T13:10:00;102447.44;;;19.09;52.47
76866;BME280;66647;52.124;5.416;2023-06-01T13:12:28;102442.63;;;18.85;53.12
76866;BME280;66647;52.124;5.416;2023-06-01T13:14:55;102449.19;;;18.68;53.69
76866;BME280;66647;52.124;5.416;2023-06-01T13:17:23;102441.19;;;18.67;54.31
76866;BME280;66647;52.124;5.416;2023-06-01T13:19:50;102433.91;;;18.74;53.78
76866;BME280;66647;52.124;5.416;2023-06-01T13:22:18;102443.41;;;18.73;53.57
76866;BME280;66647;52.124;5.416;2023-06-01T13:24:45;102438.66;;;18.74;53.59
76866;BME280;66647;52.124;5.416;2023-06-01T13:27:32;102440.41;;;18.58;54.58
76866;BME280;66647;52.124;5.416;2023-06-01T13:29:59;102434.03;;;18.57;55.26
76866;BME280;66647;52.124;5.416;2023-06-01T13:32:27;102439.75;;;18.61;55.46
76866;BME280;66647;52.124;5.416;2023-06-01T13:34:54;102449.88;;;18.44;56.16